Time,TemperatureF,DewpointF,PressureIn,WindDirection,WindDirectionDegrees,WindSpeedMPH,WindSpeedGustMPH,Humidity,HourlyPrecipIn,Conditions,Clouds,dailyrainin,SoftwareType,DateUTC
2013-08-18 00:03:00,-999.0,-99.9,30.08,SE,125,7.0,13.0,-999,-99.99,,,-99.99,,2013-08-18 04:03:00,
2013-08-18 00:23:00,82.0,75.0,30.08,SE,128,6.0,12.0,77,-99.99,,,-99.99,,2013-08-18 04:23:00,
2013-08-18 00:53:00,82.0,75.0,30.07,SE,133,8.0,14.0,77,-99.99,,,-99.99,,2013-08-18 04:53:00,
2013-08-18 01:22:00,82.0,75.0,30.07,SE,132,8.0,13.0,78,-99.99,,,-99.99,,2013-08-18 05:22:00,
2013-08-18 01:33:00,82.0,75.0,30.07,SE,132,8.0,13.0,78,-99.99,,,-99.99,,2013-08-18 05:33:00,
2013-08-18 02:21:00,82.0,74.0,30.06,SE,130,8.0,12.0,76,-99.99,,,-99.99,,2013-08-18 06:21:00,
2013-08-18 02:42:00,82.0,74.0,30.05,SE,130,8.0,14.0,77,-99.99,,,-99.99,,2013-08-18 06:42:00,
2013-08-18 02:52:00,82.0,75.0,30.05,SE,132,8.0,12.0,80,-99.99,,,-99.99,,2013-08-18 06:52:00,
2013-08-18 03:01:00,82.0,75.0,30.05,SE,132,8.0,12.0,80,-99.99,,,-99.99,,2013-08-18 07:01:00,
2013-08-18 03:22:00,82.0,75.0,30.04,SE,132,8.0,12.0,79,-99.99,,,-99.99,,2013-08-18 07:22:00,
2013-08-18 03:30:00,81.0,75.0,30.03,SE,126,8.0,14.0,79,-99.99,,,-99.99,,2013-08-18 07:30:00,
2013-08-18 03:42:00,81.0,75.0,30.02,SE,131,7.0,12.0,79,-99.99,,,-99.99,,2013-08-18 07:42:00,
2013-08-18 04:12:00,81.0,75.0,30.03,SE,126,8.0,14.0,79,-99.99,,,-99.99,,2013-08-18 08:12:00,
2013-08-18 04:21:00,81.0,75.0,30.03,SE,126,8.0,14.0,79,-99.99,,,-99.99,,2013-08-18 08:21:00,
2013-08-18 05:21:00,82.0,74.0,30.01,SE,127,6.0,11.0,78,-99.99,,,-99.99,,2013-08-18 09:21:00,
2013-08-18 05:43:00,81.0,76.0,30.01,ESE,109,6.0,15.0,83,-99.99,,,-99.99,,2013-08-18 09:43:00,
2013-08-18 06:23:00,82.0,74.0,30.02,SE,130,8.0,13.0,78,-99.99,,,-99.99,,2013-08-18 10:23:00,
2013-08-18 06:42:00,81.0,75.0,30.02,ESE,122,6.0,14.0,80,-99.99,,,-99.99,,2013-08-18 10:42:00,
2013-08-18 06:52:00,82.0,75.0,30.02,SE,127,7.0,11.0,78,-99.99,,,-99.99,,2013-08-18 10:52:00,
2013-08-18 07:02:00,82.0,75.0,30.02,SE,127,7.0,11.0,78,-99.99,,,-99.99,,2013-08-18 11:02:00,
2013-08-18 07:22:00,82.0,74.0,30.03,SE,131,8.0,14.0,78,-99.99,,,-99.99,,2013-08-18 11:22:00,
2013-08-18 07:32:00,82.0,74.0,30.03,SE,131,8.0,14.0,78,-99.99,,,-99.99,,2013-08-18 11:32:00,
2013-08-18 07:52:00,81.0,72.0,30.03,SE,131,9.0,14.0,73,-99.99,,,-99.99,,2013-08-18 11:52:00,
2013-08-18 08:11:00,82.0,73.0,30.04,SE,128,9.0,18.0,74,-99.99,,,-99.99,,2013-08-18 12:11:00,
2013-08-18 08:21:00,82.0,73.0,30.04,SE,128,9.0,18.0,74,-99.99,,,-99.99,,2013-08-18 12:21:00,
2013-08-18 08:42:00,83.0,74.0,30.05,SE,133,9.0,16.0,74,-99.99,,,-99.99,,2013-08-18 12:42:00,
2013-08-18 08:52:00,83.0,73.0,30.05,SE,127,9.0,15.0,72,-99.99,,,-99.99,,2013-08-18 12:52:00,
2013-08-18 09:01:00,83.0,73.0,30.05,SE,127,9.0,15.0,72,-99.99,,,-99.99,,2013-08-18 13:01:00,
2013-08-18 09:21:00,83.0,74.0,30.05,SE,130,9.0,14.0,72,-99.99,,,-99.99,,2013-08-18 13:21:00,
2013-08-18 09:42:00,84.0,74.0,30.06,ESE,123,8.0,14.0,72,-99.99,,,-99.99,,2013-08-18 13:42:00,
2013-08-18 09:52:00,85.0,74.0,30.06,SE,125,10.0,16.0,70,-99.99,,,-99.99,,2013-08-18 13:52:00,
2013-08-18 10:11:00,84.0,74.0,30.06,SE,137,10.0,16.0,70,-99.99,,,-99.99,,2013-08-18 14:11:00,
2013-08-18 10:22:00,84.0,74.0,30.06,SE,137,10.0,16.0,70,-99.99,,,-99.99,,2013-08-18 14:22:00,
2013-08-18 10:53:00,85.0,74.0,30.07,SE,140,11.0,18.0,69,-99.99,,,-99.99,,2013-08-18 14:53:00,
2013-08-18 11:01:00,85.0,74.0,30.07,SE,140,11.0,18.0,69,-99.99,,,-99.99,,2013-08-18 15:01:00,
2013-08-18 11:22:00,85.0,74.0,30.07,SE,134,11.0,17.0,70,-99.99,,,-99.99,,2013-08-18 15:22:00,
2013-08-18 11:33:00,85.0,74.0,30.07,SE,134,11.0,17.0,70,-99.99,,,-99.99,,2013-08-18 15:33:00,
2013-08-18 11:54:00,86.0,75.0,30.08,SE,135,11.0,19.0,70,-99.99,,,-99.99,,2013-08-18 15:54:00,
2013-08-18 12:03:00,86.0,75.0,30.08,SE,135,11.0,19.0,70,-99.99,,,-99.99,,2013-08-18 16:03:00,
2013-08-18 12:23:00,86.0,75.0,30.08,SE,127,10.0,15.0,69,-99.99,,,-99.99,,2013-08-18 16:23:00,
2013-08-18 12:42:00,86.0,76.0,30.08,SE,126,11.0,17.0,71,-99.99,,,-99.99,,2013-08-18 16:42:00,
2013-08-18 13:24:00,77.0,73.0,30.08,SE,143,6.0,13.0,86,-99.99,,,-99.99,,2013-08-18 17:24:00,
2013-08-18 13:43:00,83.0,76.0,30.07,SE,126,9.0,18.0,79,-99.99,,,-99.99,,2013-08-18 17:43:00,
2013-08-18 14:22:00,83.0,73.0,30.07,SE,140,13.0,20.0,71,-99.99,,,-99.99,,2013-08-18 18:22:00,
2013-08-18 14:42:00,84.0,75.0,30.05,SE,131,13.0,20.0,73,-99.99,,,-99.99,,2013-08-18 18:42:00,
2013-08-18 15:22:00,85.0,73.0,30.05,SE,137,12.0,17.0,66,-99.99,,,-99.99,,2013-08-18 19:22:00,
2013-08-18 15:42:00,86.0,76.0,30.04,SE,137,12.0,18.0,71,-99.99,,,-99.99,,2013-08-18 19:42:00,
2013-08-18 16:22:00,86.0,77.0,30.02,SE,131,11.0,19.0,73,-99.99,,,-99.99,,2013-08-18 20:22:00,
2013-08-18 16:42:00,85.0,76.0,30.02,SSE,152,10.0,17.0,73,-99.99,,,-99.99,,2013-08-18 20:42:00,
2013-08-18 17:22:00,84.0,76.0,30.01,SE,143,9.0,14.0,76,-99.99,,,-99.99,,2013-08-18 21:22:00,
2013-08-18 17:42:00,84.0,77.0,30.01,SE,143,10.0,15.0,79,-99.99,,,-99.99,,2013-08-18 21:42:00,
2013-08-18 18:23:00,84.0,76.0,30.00,SE,132,11.0,17.0,75,-99.99,,,-99.99,,2013-08-18 22:23:00,
2013-08-18 18:34:00,84.0,76.0,30.00,SE,132,11.0,17.0,75,-99.99,,,-99.99,,2013-08-18 22:34:00,
2013-08-18 19:11:00,84.0,76.0,30.00,SE,133,9.0,15.0,76,-99.99,,,-99.99,,2013-08-18 23:11:00,
2013-08-18 19:22:00,84.0,76.0,30.00,SE,133,9.0,15.0,76,-99.99,,,-99.99,,2013-08-18 23:22:00,
2013-08-18 20:22:00,83.0,75.0,30.02,SE,138,7.0,15.0,77,-99.99,,,-99.99,,2013-08-19 00:22:00,
2013-08-18 20:42:00,83.0,75.0,30.02,SE,138,7.0,12.0,76,-99.99,,,-99.99,,2013-08-19 00:42:00,
2013-08-18 20:52:00,83.0,75.0,30.03,SE,131,7.0,10.0,77,-99.99,,,-99.99,,2013-08-19 00:52:00,
2013-08-18 21:02:00,83.0,75.0,30.03,SE,131,7.0,10.0,77,-99.99,,,-99.99,,2013-08-19 01:02:00,
2013-08-18 21:22:00,83.0,75.0,30.04,SE,133,7.0,10.0,77,-99.99,,,-99.99,,2013-08-19 01:22:00,
2013-08-18 22:22:00,82.0,75.0,30.05,SE,129,7.0,11.0,77,-99.99,,,-99.99,,2013-08-19 02:22:00,
2013-08-18 22:42:00,82.0,75.0,30.06,SE,134,7.0,10.0,78,-99.99,,,-99.99,,2013-08-19 02:42:00,
2013-08-18 22:52:00,82.0,75.0,30.07,SE,138,6.0,11.0,79,-99.99,,,-99.99,,2013-08-19 02:52:00,
2013-08-18 23:01:00,82.0,75.0,30.07,SE,138,6.0,11.0,79,-99.99,,,-99.99,,2013-08-19 03:01:00,
2013-08-18 23:21:00,82.0,75.0,30.07,SE,133,7.0,11.0,78,-99.99,,,-99.99,,2013-08-19 03:21:00,
2013-08-18 23:33:00,82.0,75.0,30.07,SE,133,7.0,11.0,78,-99.99,,,-99.99,,2013-08-19 03:33:00,